createdAt,value
2018-05-04T00:00:24.290Z,12.95
2018-05-04T00:01:24.226Z,12.97
2018-05-04T00:02:24.168Z,12.90
2018-05-04T00:03:24.102Z,12.87
2018-05-04T00:04:24.040Z,12.87
2018-05-04T00:05:23.974Z,12.86
2018-05-04T00:06:23.903Z,12.91
2018-05-04T00:07:23.848Z,12.83
2018-05-04T00:08:23.780Z,12.85
2018-05-04T00:09:23.717Z,12.80
2018-05-04T00:10:23.653Z,12.87
2018-05-04T00:11:23.592Z,12.83
2018-05-04T00:12:23.528Z,12.82
2018-05-04T00:13:23.460Z,12.79
2018-05-04T00:14:23.400Z,12.79
2018-05-04T00:15:23.336Z,12.78
2018-05-04T00:16:23.272Z,12.82
2018-05-04T00:17:23.212Z,12.76
2018-05-04T00:18:23.145Z,12.75
2018-05-04T00:19:23.077Z,12.76
2018-05-04T00:20:23.014Z,12.78
2018-05-04T00:21:22.949Z,12.75
2018-05-04T00:22:22.891Z,12.80
2018-05-04T00:23:22.829Z,12.65
2018-05-04T00:24:22.760Z,12.62
2018-05-04T00:25:22.702Z,12.64
2018-05-04T00:26:22.630Z,12.64
2018-05-04T00:27:22.567Z,12.55
2018-05-04T00:28:22.506Z,12.55
2018-05-04T00:29:22.444Z,12.57
2018-05-04T00:30:22.380Z,12.64
2018-05-04T00:31:22.308Z,12.50
2018-05-04T00:32:22.246Z,12.55
2018-05-04T00:33:29.819Z,12.42
2018-05-04T00:35:16.510Z,12.47
2018-05-04T00:36:16.378Z,12.53
2018-05-04T00:38:10.687Z,12.53
2018-05-04T00:39:10.583Z,12.36
2018-05-04T00:41:04.884Z,12.46
2018-05-04T00:42:04.777Z,12.42
2018-05-04T00:43:58.090Z,12.35
2018-05-04T00:44:57.989Z,12.40
2018-05-04T00:46:51.297Z,12.46
2018-05-04T00:47:51.189Z,12.36
2018-05-04T00:49:45.482Z,12.36
2018-05-04T00:50:45.385Z,12.36
2018-05-04T00:52:39.712Z,12.39
2018-05-04T00:53:39.590Z,12.35
2018-05-04T00:55:34.079Z,12.40
2018-05-04T00:56:33.987Z,12.35
2018-05-04T00:58:27.298Z,12.37
2018-05-04T00:59:27.190Z,12.37
2018-05-04T01:01:21.482Z,12.31
2018-05-04T01:02:21.384Z,12.36
2018-05-04T01:04:15.680Z,12.22
2018-05-04T01:05:15.580Z,12.13
2018-05-04T01:07:08.884Z,12.27
2018-05-04T01:08:08.782Z,12.20
2018-05-04T01:10:03.107Z,12.29
2018-05-04T01:11:02.988Z,12.28
2018-05-04T01:12:56.292Z,12.24
2018-05-04T01:13:56.195Z,12.13
2018-05-04T01:15:50.484Z,12.10
2018-05-04T01:16:50.396Z,12.15
2018-05-04T01:18:43.707Z,12.07
2018-05-04T01:19:43.600Z,12.02
2018-05-04T01:21:37.899Z,12.03
2018-05-04T01:22:37.794Z,12.07
2018-05-04T01:24:32.100Z,12.12
2018-05-04T01:25:32.004Z,12.02
2018-05-04T01:27:25.515Z,12.07
2018-05-04T01:28:25.400Z,11.91
2018-05-04T01:30:18.706Z,11.97
2018-05-04T01:31:18.606Z,11.99
2018-05-04T01:33:12.901Z,11.97
2018-05-04T01:34:12.797Z,11.97
2018-05-04T01:36:07.098Z,11.95
2018-05-04T01:37:07.004Z,11.99
2018-05-04T01:39:01.301Z,11.91
2018-05-04T01:40:01.200Z,11.88
2018-05-04T01:41:55.478Z,11.87
2018-05-04T01:42:55.385Z,11.87
2018-05-04T01:44:48.698Z,11.83
2018-05-04T01:45:48.593Z,11.73
2018-05-04T01:47:41.897Z,11.72
2018-05-04T01:48:41.794Z,11.72
2018-05-04T01:50:35.090Z,11.72
2018-05-04T01:51:34.995Z,11.73
2018-05-04T01:53:28.308Z,11.72
2018-05-04T01:54:28.281Z,11.70
2018-05-04T01:56:21.501Z,11.70
2018-05-04T01:57:21.403Z,11.70
2018-05-04T01:59:15.710Z,11.77
2018-05-04T02:00:15.602Z,11.70
2018-05-04T02:02:09.896Z,11.66
2018-05-04T02:03:09.795Z,11.73
2018-05-04T02:05:04.091Z,11.75
2018-05-04T02:06:03.995Z,11.69
2018-05-04T02:07:58.294Z,11.63
2018-05-04T02:08:58.188Z,11.62
2018-05-04T02:10:52.477Z,11.57
2018-05-04T02:11:52.380Z,11.55
2018-05-04T02:13:45.684Z,11.51
2018-05-04T02:14:45.581Z,11.45
2018-05-04T02:16:38.877Z,11.54
2018-05-04T02:17:38.782Z,11.50
2018-05-04T02:19:33.090Z,11.51
2018-05-04T02:20:32.979Z,11.35
2018-05-04T02:22:27.267Z,11.36
2018-05-04T02:23:27.172Z,11.27
2018-05-04T02:25:22.086Z,11.11
2018-05-04T02:26:21.365Z,11.25
2018-05-04T02:28:15.658Z,11.29
2018-05-04T02:29:15.563Z,11.35
2018-05-04T02:31:09.852Z,11.26
2018-05-04T02:32:09.746Z,11.18
2018-05-04T02:34:03.053Z,11.12
2018-05-04T02:35:02.953Z,11.07
2018-05-04T02:36:56.273Z,11.08
2018-05-04T02:37:56.161Z,11.19
2018-05-04T02:39:50.451Z,11.19
2018-05-04T02:40:50.354Z,11.32
2018-05-04T02:42:44.648Z,11.29
2018-05-04T02:43:44.545Z,11.27
2018-05-04T02:45:37.846Z,11.33
2018-05-04T02:46:37.747Z,11.27
2018-05-04T02:48:31.059Z,11.11
2018-05-04T02:49:30.953Z,11.15
2018-05-04T02:51:24.269Z,11.18
2018-05-04T02:52:24.146Z,11.23
2018-05-04T02:54:18.450Z,11.19
2018-05-04T02:55:18.354Z,11.14
2018-05-04T02:57:11.652Z,10.93
2018-05-04T02:58:11.553Z,10.90
2018-05-04T03:00:05.846Z,10.79
2018-05-04T03:01:05.743Z,10.63
2018-05-04T03:03:00.044Z,10.75
2018-05-04T03:03:59.932Z,10.81
2018-05-04T03:05:53.234Z,10.81
2018-05-04T03:06:53.131Z,10.89
2018-05-04T03:07:53.070Z,10.99
2018-05-04T03:08:53.004Z,10.96
2018-05-04T03:09:52.942Z,10.92
2018-05-04T03:10:52.876Z,11.02
2018-05-04T03:11:52.808Z,10.94
2018-05-04T03:12:52.744Z,11.00
2018-05-04T03:13:52.680Z,10.97
2018-05-04T03:14:52.614Z,10.96
2018-05-04T03:15:52.549Z,10.96
2018-05-04T03:16:52.485Z,10.87
2018-05-04T03:17:52.416Z,10.90
2018-05-04T03:18:52.353Z,10.86
2018-05-04T03:19:52.294Z,10.76
2018-05-04T03:20:52.223Z,10.72
2018-05-04T03:21:52.179Z,10.82
2018-05-04T03:22:52.094Z,10.81
2018-05-04T03:23:52.029Z,10.82
2018-05-04T03:24:51.968Z,10.78
2018-05-04T03:25:51.895Z,10.71
2018-05-04T03:26:51.830Z,10.81
2018-05-04T03:27:51.769Z,10.78
2018-05-04T03:28:51.703Z,10.76
2018-05-04T03:29:51.636Z,10.74
2018-05-04T03:30:51.571Z,10.81
2018-05-04T03:31:51.512Z,10.75
2018-05-04T03:32:51.440Z,10.64
2018-05-04T03:33:51.413Z,10.67
2018-05-04T03:34:51.313Z,10.61
2018-05-04T03:35:51.250Z,10.60
2018-05-04T03:36:51.194Z,10.69
2018-05-04T03:37:51.116Z,10.67
2018-05-04T03:38:51.047Z,10.63
2018-05-04T03:39:50.986Z,10.71
2018-05-04T03:40:50.920Z,10.60
2018-05-04T03:41:50.855Z,10.64
2018-05-04T03:42:50.826Z,10.63
2018-05-04T03:43:50.732Z,10.54
2018-05-04T03:44:50.658Z,10.60
2018-05-04T03:45:50.594Z,10.68
2018-05-04T03:46:50.528Z,10.63
2018-05-04T03:47:50.463Z,10.64
2018-05-04T03:48:50.401Z,10.64
2018-05-04T03:49:50.330Z,10.68
2018-05-04T03:50:50.266Z,10.63
2018-05-04T03:51:50.204Z,10.69
2018-05-04T03:52:50.139Z,10.76
2018-05-04T03:53:50.068Z,10.79
2018-05-04T03:54:50.006Z,10.81
2018-05-04T03:55:49.942Z,10.78
2018-05-04T03:56:49.877Z,10.64
2018-05-04T03:57:49.808Z,10.74
2018-05-04T03:58:49.742Z,10.69
2018-05-04T03:59:49.681Z,10.64
2018-05-04T04:00:49.619Z,10.67
2018-05-04T04:01:49.547Z,10.60
2018-05-04T04:02:49.483Z,10.57
2018-05-04T04:03:49.417Z,10.53
2018-05-04T04:04:49.354Z,10.63
2018-05-04T04:05:49.291Z,10.57
2018-05-04T04:06:49.227Z,10.49
2018-05-04T04:07:49.158Z,10.54
2018-05-04T04:08:49.095Z,10.56
2018-05-04T04:09:49.025Z,10.56
2018-05-04T04:10:48.960Z,10.51
2018-05-04T04:11:48.894Z,10.57
2018-05-04T04:12:48.830Z,10.69
2018-05-04T04:13:48.767Z,10.59
2018-05-04T04:14:48.700Z,10.57
2018-05-04T04:15:48.629Z,10.63
2018-05-04T04:16:48.569Z,10.64
2018-05-04T04:17:48.557Z,10.67
2018-05-04T04:18:48.440Z,10.67
2018-05-04T04:19:48.375Z,10.68
2018-05-04T04:20:48.311Z,10.67
2018-05-04T04:21:48.243Z,10.68
2018-05-04T04:22:48.184Z,10.69
2018-05-04T04:23:48.119Z,10.63
2018-05-04T04:24:48.050Z,10.69
2018-05-04T04:25:47.987Z,10.71
2018-05-04T04:26:47.917Z,10.67
2018-05-04T04:27:47.850Z,10.68
2018-05-04T04:28:47.792Z,10.68
2018-05-04T04:29:47.719Z,10.72
2018-05-04T04:30:47.655Z,10.79
2018-05-04T04:31:47.592Z,10.78
2018-05-04T04:32:47.528Z,10.90
2018-05-04T04:33:47.459Z,10.86
2018-05-04T04:34:47.414Z,11.00
2018-05-04T04:35:47.333Z,10.97
2018-05-04T04:36:47.264Z,10.96
2018-05-04T04:37:47.201Z,11.07
2018-05-04T04:38:47.234Z,11.14
2018-05-04T04:39:47.078Z,11.12
2018-05-04T04:40:47.016Z,11.02
2018-05-04T04:41:46.940Z,10.96
2018-05-04T04:42:46.869Z,10.97
2018-05-04T04:43:46.807Z,11.05
2018-05-04T04:44:46.744Z,11.07
2018-05-04T04:45:46.684Z,11.00
2018-05-04T04:46:46.615Z,11.00
2018-05-04T04:47:46.547Z,11.00
2018-05-04T04:48:46.483Z,11.08
2018-05-04T04:49:46.422Z,11.12
2018-05-04T04:50:46.356Z,11.17
2018-05-04T04:51:46.296Z,11.10
2018-05-04T04:52:46.223Z,11.05
2018-05-04T04:53:46.158Z,11.26
2018-05-04T04:54:46.089Z,11.23
2018-05-04T04:55:46.026Z,11.17
2018-05-04T04:56:45.967Z,11.17
2018-05-04T04:57:45.910Z,11.23
2018-05-04T04:58:45.835Z,11.26
2018-05-04T04:59:45.771Z,11.30
2018-05-04T05:00:45.736Z,11.29
2018-05-04T05:01:45.645Z,11.47
2018-05-04T05:02:45.572Z,11.47
2018-05-04T05:03:45.510Z,11.47
2018-05-04T05:04:45.443Z,11.37
2018-05-04T05:05:45.375Z,11.45
2018-05-04T05:06:45.311Z,11.57
2018-05-04T05:07:45.276Z,11.55
2018-05-04T05:08:45.183Z,11.59
2018-05-04T05:09:45.120Z,11.57
2018-05-04T05:10:45.055Z,11.68
2018-05-04T05:11:44.990Z,11.65
2018-05-04T05:12:44.929Z,11.84
2018-05-04T05:13:44.856Z,11.75
2018-05-04T05:14:44.794Z,11.73
2018-05-04T05:15:44.727Z,11.88
2018-05-04T05:16:44.663Z,11.95
2018-05-04T05:17:44.606Z,12.02
2018-05-04T05:18:44.535Z,11.99
2018-05-04T05:19:44.467Z,12.04
2018-05-04T05:20:44.405Z,12.00
2018-05-04T05:21:44.343Z,12.06
2018-05-04T05:22:44.278Z,12.13
2018-05-04T05:23:44.215Z,12.10
2018-05-04T05:24:44.151Z,12.15
2018-05-04T05:25:44.085Z,12.17
2018-05-04T05:26:44.016Z,12.21
2018-05-04T05:27:43.952Z,12.15
2018-05-04T05:28:43.887Z,12.20
2018-05-04T05:29:43.825Z,12.17
2018-05-04T05:30:43.762Z,12.15
2018-05-04T05:31:43.697Z,12.12
2018-05-04T05:32:43.640Z,12.07
2018-05-04T05:33:43.566Z,12.20
2018-05-04T05:34:43.502Z,12.29
2018-05-04T05:35:43.440Z,12.28
2018-05-04T05:36:43.377Z,12.21
2018-05-04T05:37:43.306Z,12.17
2018-05-04T05:38:43.242Z,12.15
2018-05-04T05:39:43.180Z,12.09
2018-05-04T05:40:43.125Z,11.97
2018-05-04T05:41:43.052Z,12.02
2018-05-04T05:42:42.992Z,12.18
2018-05-04T05:43:42.925Z,12.24
2018-05-04T05:44:42.859Z,12.36
2018-05-04T05:45:42.791Z,12.39
2018-05-04T05:46:42.731Z,12.50
2018-05-04T05:47:42.668Z,12.49
2018-05-04T05:48:42.610Z,12.49
2018-05-04T05:49:42.540Z,12.76
2018-05-04T05:50:42.478Z,12.97
2018-05-04T05:51:42.406Z,13.09
2018-05-04T05:52:42.343Z,13.16
2018-05-04T05:53:42.281Z,13.18
2018-05-04T05:54:42.301Z,13.11
2018-05-04T05:55:42.159Z,12.97
2018-05-04T05:56:42.088Z,13.00
2018-05-04T05:57:42.023Z,12.86
2018-05-04T05:58:41.960Z,12.86
2018-05-04T05:59:41.895Z,12.78
2018-05-04T06:00:41.831Z,12.67
2018-05-04T06:01:41.770Z,12.76
2018-05-04T06:02:41.703Z,12.82
2018-05-04T06:03:41.643Z,12.90
2018-05-04T06:04:41.579Z,12.87
2018-05-04T06:05:41.513Z,12.98
2018-05-04T06:06:41.447Z,13.09
2018-05-04T06:07:41.388Z,13.20
2018-05-04T06:08:41.322Z,13.18
2018-05-04T06:09:41.255Z,13.27
2018-05-04T06:10:41.192Z,13.35
2018-05-04T06:11:41.129Z,13.20
2018-05-04T06:12:41.069Z,13.13
2018-05-04T06:13:41.002Z,13.09
2018-05-04T06:14:40.939Z,13.18
2018-05-04T06:15:40.876Z,13.18
2018-05-04T06:16:40.812Z,13.20
2018-05-04T06:17:40.745Z,13.33
2018-05-04T06:18:40.683Z,13.50
2018-05-04T06:19:40.621Z,13.53
2018-05-04T06:20:40.558Z,13.49
2018-05-04T06:21:40.493Z,13.35
2018-05-04T06:22:40.431Z,13.47
2018-05-04T06:23:40.370Z,13.56
2018-05-04T06:24:40.309Z,13.63
2018-05-04T06:25:40.242Z,13.54
2018-05-04T06:26:40.180Z,13.68
2018-05-04T06:27:40.121Z,13.63
2018-05-04T06:28:40.051Z,13.65
2018-05-04T06:29:39.985Z,13.63
2018-05-04T06:30:39.922Z,13.77
2018-05-04T06:31:39.862Z,13.89
2018-05-04T06:32:39.794Z,13.92
2018-05-04T06:33:39.735Z,14.00
2018-05-04T06:34:39.673Z,13.86
2018-05-04T06:35:39.613Z,13.97
2018-05-04T06:36:39.544Z,13.97
2018-05-04T06:37:39.476Z,14.00
2018-05-04T06:38:39.418Z,14.08
2018-05-04T06:39:39.432Z,14.04
2018-05-04T06:40:39.292Z,14.03
2018-05-04T06:41:39.228Z,14.14
2018-05-04T06:42:39.162Z,14.18
2018-05-04T06:43:39.103Z,14.32
2018-05-04T06:44:39.042Z,14.36
2018-05-04T06:45:39.015Z,14.47
2018-05-04T06:46:38.913Z,14.53
2018-05-04T06:47:38.847Z,14.58
2018-05-04T06:48:38.805Z,14.60
2018-05-04T06:49:38.726Z,14.58
2018-05-04T06:50:38.658Z,14.59
2018-05-04T06:51:38.597Z,14.53
2018-05-04T06:52:38.541Z,14.44
2018-05-04T06:53:38.473Z,14.35
2018-05-04T06:54:38.411Z,14.30
2018-05-04T06:55:38.349Z,14.37
2018-05-04T06:56:38.345Z,14.53
2018-05-04T06:57:38.230Z,14.65
2018-05-04T06:58:38.160Z,14.79
2018-05-04T06:59:38.097Z,14.81
2018-05-04T07:00:38.035Z,14.79
2018-05-04T07:01:37.968Z,14.85
2018-05-04T07:02:37.905Z,14.85
2018-05-04T07:03:37.842Z,14.84
2018-05-04T07:04:37.782Z,14.66
2018-05-04T07:05:37.722Z,14.70
2018-05-04T07:06:37.683Z,14.69
2018-05-04T07:07:37.601Z,14.77
2018-05-04T07:08:37.533Z,14.69
2018-05-04T07:09:37.468Z,14.72
2018-05-04T07:10:37.405Z,14.72
2018-05-04T07:11:37.347Z,14.72
2018-05-04T07:12:37.284Z,14.82
2018-05-04T07:13:37.223Z,14.91
2018-05-04T07:14:37.157Z,14.89
2018-05-04T07:15:37.092Z,14.91
2018-05-04T07:16:37.032Z,14.84
2018-05-04T07:17:36.975Z,14.79
2018-05-04T07:18:36.909Z,14.99
2018-05-04T07:19:36.848Z,15.06
2018-05-04T07:20:36.789Z,15.03
2018-05-04T07:21:36.718Z,15.04
2018-05-04T07:22:36.660Z,15.14
2018-05-04T07:23:36.598Z,15.19
2018-05-04T07:24:36.532Z,15.18
2018-05-04T07:25:36.474Z,15.18
2018-05-04T07:26:36.411Z,15.15
2018-05-04T07:27:36.348Z,15.18
2018-05-04T07:28:36.362Z,15.25
2018-05-04T07:29:36.225Z,15.17
2018-05-04T07:30:36.162Z,15.19
2018-05-04T07:31:36.107Z,15.06
2018-05-04T07:32:36.041Z,15.14
2018-05-04T07:33:35.973Z,15.15
2018-05-04T07:34:35.910Z,15.24
2018-05-04T07:35:35.849Z,15.27
2018-05-04T07:36:35.787Z,15.33
2018-05-04T07:37:35.727Z,15.24
2018-05-04T07:38:35.667Z,15.21
2018-05-04T07:39:35.606Z,15.24
2018-05-04T07:40:35.544Z,15.15
2018-05-04T07:41:35.481Z,15.17
2018-05-04T07:42:35.417Z,15.28
2018-05-04T07:43:35.358Z,15.17
2018-05-04T07:44:35.298Z,15.22
2018-05-04T07:45:35.233Z,15.33
2018-05-04T07:46:35.170Z,15.39
2018-05-04T07:47:35.106Z,15.44
2018-05-04T07:48:35.079Z,15.46
2018-05-04T07:49:35.003Z,15.39
2018-05-04T07:50:34.922Z,15.40
2018-05-04T07:51:34.859Z,15.33
2018-05-04T07:52:34.803Z,15.29
2018-05-04T07:53:34.747Z,15.37
2018-05-04T07:54:34.672Z,15.37
2018-05-04T07:55:34.624Z,15.28
2018-05-04T07:56:34.546Z,15.24
2018-05-04T07:57:34.488Z,15.28
2018-05-04T07:58:34.434Z,15.39
2018-05-04T07:59:34.360Z,15.42
2018-05-04T08:00:34.307Z,15.43
2018-05-04T08:01:34.239Z,15.54
2018-05-04T08:02:34.179Z,15.58
2018-05-04T08:03:34.119Z,15.65
2018-05-04T08:04:34.056Z,15.62
2018-05-04T08:05:33.993Z,15.62
2018-05-04T08:06:33.929Z,15.67
2018-05-04T08:07:33.867Z,15.67
2018-05-04T08:08:33.832Z,15.65
2018-05-04T08:09:33.746Z,15.61
2018-05-04T08:10:33.684Z,15.79
2018-05-04T08:11:33.623Z,15.73
2018-05-04T08:12:33.562Z,15.79
2018-05-04T08:13:33.497Z,15.72
2018-05-04T08:14:33.436Z,15.79
2018-05-04T08:15:33.375Z,15.75
2018-05-04T08:16:33.332Z,15.72
2018-05-04T08:17:33.251Z,15.84
2018-05-04T08:18:33.193Z,15.83
2018-05-04T08:19:33.134Z,15.77
2018-05-04T08:20:33.087Z,15.92
2018-05-04T08:21:33.007Z,16.00
2018-05-04T08:22:32.944Z,16.10
2018-05-04T08:23:32.887Z,16.04
2018-05-04T08:24:32.851Z,16.02
2018-05-04T08:25:32.757Z,15.97
2018-05-04T08:26:32.701Z,15.82
2018-05-04T08:27:32.636Z,15.88
2018-05-04T08:28:32.573Z,15.83
2018-05-04T08:29:32.514Z,15.91
2018-05-04T08:30:32.457Z,16.02
2018-05-04T08:31:32.388Z,16.01
2018-05-04T08:32:32.326Z,16.17
2018-05-04T08:33:32.304Z,16.05
2018-05-04T08:34:32.204Z,15.90
2018-05-04T08:35:32.249Z,15.92
2018-05-04T08:36:32.084Z,15.80
2018-05-04T08:37:32.031Z,15.80
2018-05-04T08:38:31.970Z,15.80
2018-05-04T08:39:31.900Z,15.82
2018-05-04T08:40:31.869Z,15.75
2018-05-04T08:41:31.786Z,15.72
2018-05-04T08:42:31.710Z,15.75
2018-05-04T08:43:31.652Z,15.76
2018-05-04T08:44:31.591Z,15.79
2018-05-04T08:45:31.527Z,15.67
2018-05-04T08:46:31.464Z,15.59
2018-05-04T08:47:31.403Z,15.58
2018-05-04T08:48:31.361Z,15.62
2018-05-04T08:49:31.278Z,15.64
2018-05-04T08:50:31.217Z,15.70
2018-05-04T08:51:31.158Z,15.72
2018-05-04T08:52:31.094Z,15.79
2018-05-04T08:53:31.035Z,15.84
2018-05-04T08:54:30.975Z,15.82
2018-05-04T08:55:30.911Z,16.00
2018-05-04T08:56:30.853Z,16.10
2018-05-04T08:57:30.803Z,16.12
2018-05-04T08:58:30.737Z,16.15
2018-05-04T08:59:30.664Z,16.16
2018-05-04T09:00:30.604Z,16.12
2018-05-04T09:01:30.552Z,16.21
2018-05-04T09:02:30.483Z,16.29
2018-05-04T09:03:30.439Z,16.12
2018-05-04T09:04:30.362Z,16.10
2018-05-04T09:05:30.407Z,16.04
2018-05-04T09:06:30.265Z,15.97
2018-05-04T09:07:30.178Z,16.05
2018-05-04T09:08:30.150Z,16.13
2018-05-04T09:09:30.051Z,16.26
2018-05-04T09:10:29.995Z,16.26
2018-05-04T09:11:29.924Z,16.24
2018-05-04T09:12:29.870Z,16.26
2018-05-04T09:13:29.814Z,16.21
2018-05-04T09:14:29.745Z,16.35
2018-05-04T09:15:29.683Z,16.50
2018-05-04T09:16:29.642Z,16.49
2018-05-04T09:17:29.557Z,16.36
2018-05-04T09:18:29.499Z,16.38
2018-05-04T09:19:29.461Z,16.36
2018-05-04T09:20:29.381Z,16.46
2018-05-04T09:21:29.346Z,16.50
2018-05-04T09:22:29.261Z,16.43
2018-05-04T09:23:29.193Z,16.35
2018-05-04T09:24:29.128Z,16.41
2018-05-04T09:25:29.071Z,16.33
2018-05-04T09:26:29.011Z,16.38
2018-05-04T09:27:28.953Z,16.35
2018-05-04T09:28:28.909Z,16.47
2018-05-04T09:29:28.858Z,16.43
2018-05-04T09:30:28.764Z,16.54
2018-05-04T09:31:28.699Z,16.64
2018-05-04T09:32:28.641Z,16.61
2018-05-04T09:33:28.584Z,16.61
2018-05-04T09:34:28.526Z,16.64
2018-05-04T09:35:28.456Z,16.68
2018-05-04T09:36:28.395Z,16.72
2018-05-04T09:37:28.342Z,16.65
2018-05-04T09:38:28.273Z,16.71
2018-05-04T09:39:28.220Z,16.64
2018-05-04T09:40:28.167Z,16.60
2018-05-04T09:41:28.091Z,16.58
2018-05-04T09:42:28.029Z,16.64
2018-05-04T09:43:28.024Z,16.64
2018-05-04T09:44:27.916Z,16.69
2018-05-04T09:45:27.848Z,16.72
2018-05-04T09:46:27.785Z,16.75
2018-05-04T09:47:27.724Z,16.84
2018-05-04T09:48:27.665Z,16.91
2018-05-04T09:49:27.602Z,16.81
2018-05-04T09:50:27.546Z,16.72
2018-05-04T09:51:27.481Z,16.71
2018-05-04T09:52:27.426Z,16.69
2018-05-04T09:53:27.355Z,16.72
2018-05-04T09:54:27.294Z,16.76
2018-05-04T09:55:27.242Z,16.97
2018-05-04T09:56:27.176Z,16.90
2018-05-04T09:57:27.115Z,16.97
2018-05-04T09:58:27.063Z,17.01
2018-05-04T09:59:26.992Z,17.08
2018-05-04T10:00:26.933Z,16.94
2018-05-04T10:01:26.870Z,16.76
2018-05-04T10:02:26.807Z,16.69
2018-05-04T10:03:26.819Z,16.51
2018-05-04T10:04:26.689Z,16.47
2018-05-04T10:05:26.645Z,16.47
2018-05-04T10:06:26.566Z,16.71
2018-05-04T10:07:26.509Z,16.75
2018-05-04T10:08:26.446Z,16.81
2018-05-04T10:09:26.407Z,16.76
2018-05-04T10:10:26.326Z,16.84
2018-05-04T10:11:26.260Z,16.87
2018-05-04T10:12:26.238Z,16.84
2018-05-04T10:13:26.140Z,16.83
2018-05-04T10:14:26.076Z,16.75
2018-05-04T10:15:26.026Z,16.84
2018-05-04T10:16:25.959Z,16.97
2018-05-04T10:17:25.895Z,16.97
2018-05-04T10:18:25.836Z,16.99
2018-05-04T10:19:25.771Z,16.96
2018-05-04T10:20:25.718Z,16.94
2018-05-04T10:21:25.651Z,17.04
2018-05-04T10:22:25.596Z,17.14
2018-05-04T10:23:25.546Z,17.09
2018-05-04T10:24:25.510Z,17.02
2018-05-04T10:25:25.411Z,17.04
2018-05-04T10:26:25.346Z,17.06
2018-05-04T10:27:25.288Z,17.15
2018-05-04T10:28:25.221Z,17.19
2018-05-04T10:29:25.167Z,17.05
2018-05-04T10:30:25.108Z,17.14
2018-05-04T10:31:25.046Z,17.12
2018-05-04T10:32:24.982Z,17.23
2018-05-04T10:33:24.920Z,17.24
2018-05-04T10:34:24.890Z,17.19
2018-05-04T10:35:24.855Z,17.15
2018-05-04T10:36:24.738Z,17.08
2018-05-04T10:37:24.676Z,17.04
2018-05-04T10:38:24.683Z,16.96
2018-05-04T10:39:24.586Z,17.09
2018-05-04T10:40:24.494Z,17.05
2018-05-04T10:41:24.445Z,17.20
2018-05-04T10:42:24.396Z,17.31
2018-05-04T10:43:24.329Z,17.31
2018-05-04T10:44:24.252Z,17.24
2018-05-04T10:45:26.916Z,17.39
2018-05-04T10:46:24.129Z,17.27
2018-05-04T10:47:24.072Z,17.20
2018-05-04T10:48:24.009Z,17.31
2018-05-04T10:49:23.952Z,17.31
2018-05-04T10:50:23.888Z,17.24
2018-05-04T10:51:23.827Z,17.24
2018-05-04T10:52:23.768Z,17.31
2018-05-04T10:53:23.704Z,17.33
2018-05-04T10:54:23.661Z,17.48
2018-05-04T10:55:23.586Z,17.38
2018-05-04T10:56:23.526Z,17.46
2018-05-04T10:57:23.462Z,17.64
2018-05-04T10:58:23.404Z,17.51
2018-05-04T10:59:23.342Z,17.65
2018-05-04T11:00:23.294Z,17.72
2018-05-04T11:01:23.231Z,17.79
2018-05-04T11:02:23.167Z,17.85
2018-05-04T11:03:23.934Z,17.95
2018-05-04T11:04:23.044Z,18.07
2018-05-04T11:05:23.021Z,18.05
2018-05-04T11:06:22.945Z,18.22
2018-05-04T11:07:22.875Z,18.31
2018-05-04T11:08:22.809Z,18.50
2018-05-04T11:09:22.751Z,18.56
2018-05-04T11:10:22.693Z,18.60
2018-05-04T11:11:22.669Z,18.56
2018-05-04T11:12:22.576Z,18.66
2018-05-04T11:13:22.522Z,18.66
2018-05-04T11:14:22.469Z,18.71
2018-05-04T11:15:22.424Z,18.71
2018-05-04T11:16:22.355Z,18.63
2018-05-04T11:17:22.299Z,18.75
2018-05-04T11:18:22.235Z,18.70
2018-05-04T11:19:22.256Z,18.84
2018-05-04T11:20:22.131Z,18.93
2018-05-04T11:21:22.074Z,18.88
2018-05-04T11:22:22.021Z,18.99
2018-05-04T11:23:21.966Z,19.15
2018-05-04T11:24:21.912Z,19.16
2018-05-04T11:25:21.860Z,19.27
2018-05-04T11:26:21.801Z,19.19
2018-05-04T11:27:21.753Z,19.21
2018-05-04T11:28:21.699Z,19.24
2018-05-04T11:29:24.465Z,19.45
2018-05-04T11:30:21.592Z,19.31
2018-05-04T11:31:21.541Z,19.37
2018-05-04T11:32:21.499Z,19.33
2018-05-04T11:33:21.437Z,19.47
2018-05-04T11:34:21.390Z,19.49
2018-05-04T11:35:21.340Z,19.66
2018-05-04T11:36:21.305Z,19.85
2018-05-04T11:37:21.237Z,19.96
2018-05-04T11:38:21.194Z,19.99
2018-05-04T11:39:21.137Z,20.07
2018-05-04T11:40:21.089Z,20.11
2018-05-04T11:41:21.039Z,20.14
2018-05-04T11:42:20.990Z,20.16
2018-05-04T11:43:20.939Z,20.13
2018-05-04T11:44:20.892Z,20.18
2018-05-04T11:45:20.848Z,20.32
2018-05-04T11:46:20.806Z,20.37
2018-05-04T11:47:20.749Z,20.60
2018-05-04T11:48:20.710Z,20.56
2018-05-04T11:49:20.654Z,20.67
2018-05-04T11:50:20.608Z,20.75
2018-05-04T11:51:20.564Z,20.93
2018-05-04T11:52:20.511Z,20.85
2018-05-04T11:53:20.470Z,20.85
2018-05-04T11:54:20.421Z,20.84
2018-05-04T11:55:20.378Z,20.99
2018-05-04T11:56:20.338Z,21.06
2018-05-04T11:57:20.293Z,21.20
2018-05-04T11:58:20.238Z,21.37
2018-05-04T11:59:20.193Z,21.52
2018-05-04T12:00:20.154Z,21.72
2018-05-04T12:01:20.099Z,21.73
2018-05-04T12:02:20.110Z,21.91
2018-05-04T12:03:20.016Z,21.96
2018-05-04T12:04:19.967Z,22.17
2018-05-04T12:05:19.938Z,22.41
2018-05-04T12:06:19.879Z,22.54
2018-05-04T12:07:19.850Z,22.35
2018-05-04T12:08:19.790Z,22.33
2018-05-04T12:09:19.752Z,22.23
2018-05-04T12:10:19.699Z,22.15
2018-05-04T12:11:19.658Z,22.17
2018-05-04T12:12:19.610Z,22.15
2018-05-04T12:13:19.573Z,22.44
2018-05-04T12:14:19.522Z,22.57
2018-05-04T12:15:19.485Z,22.51
2018-05-04T12:16:19.505Z,22.51
2018-05-04T12:17:19.399Z,22.44
2018-05-04T12:18:19.347Z,22.59
2018-05-04T12:19:19.311Z,22.98
2018-05-04T12:20:19.260Z,23.09
2018-05-04T12:21:19.222Z,23.05
2018-05-04T12:22:19.171Z,22.99
2018-05-04T12:23:19.131Z,22.96
2018-05-04T12:24:19.086Z,22.68
2018-05-04T12:25:19.106Z,22.76
2018-05-04T12:26:19.003Z,22.91
2018-05-04T12:27:18.966Z,23.08
2018-05-04T12:28:18.916Z,23.08
2018-05-04T12:29:18.875Z,23.13
2018-05-04T12:30:18.832Z,23.18
2018-05-04T12:31:18.790Z,23.63
2018-05-04T12:32:18.746Z,23.74
2018-05-04T12:33:18.700Z,23.98
2018-05-04T12:34:18.657Z,23.87
2018-05-04T12:35:18.616Z,23.71
2018-05-04T12:36:18.575Z,23.56
2018-05-04T12:37:18.534Z,23.78
2018-05-04T12:38:18.494Z,23.88
2018-05-04T12:39:18.451Z,23.83
2018-05-04T12:40:18.412Z,23.91
2018-05-04T12:41:18.358Z,23.88
2018-05-04T12:42:18.320Z,24.14
2018-05-04T12:43:18.276Z,24.48
2018-05-04T12:44:18.238Z,24.69
2018-05-04T12:45:18.208Z,24.58
2018-05-04T12:46:18.153Z,24.58
2018-05-04T12:47:18.109Z,24.58
2018-05-04T12:48:18.090Z,24.60
2018-05-04T12:49:18.032Z,24.78
2018-05-04T12:50:17.984Z,25.18
2018-05-04T12:51:17.949Z,24.93
2018-05-04T12:52:17.911Z,25.16
2018-05-04T12:53:17.862Z,25.28
2018-05-04T12:54:17.826Z,25.48
2018-05-04T12:55:17.772Z,25.69
2018-05-04T12:56:17.729Z,25.78
2018-05-04T12:57:17.696Z,25.96
2018-05-04T12:58:17.651Z,25.58
2018-05-04T12:59:17.655Z,25.58
2018-05-04T13:00:17.613Z,25.93
2018-05-04T13:01:17.542Z,26.09
2018-05-04T13:02:17.485Z,26.13
2018-05-04T13:03:17.457Z,25.93
2018-05-04T13:04:17.405Z,25.73
2018-05-04T13:05:17.357Z,25.81
2018-05-04T13:06:17.321Z,26.23
2018-05-04T13:07:17.274Z,26.43
2018-05-04T13:08:17.319Z,26.23
2018-05-04T13:09:17.192Z,26.36
2018-05-04T13:10:17.162Z,26.45
2018-05-04T13:11:17.130Z,26.77
2018-05-04T13:12:17.072Z,26.97
2018-05-04T13:13:17.028Z,27.21
2018-05-04T13:14:17.009Z,27.21
2018-05-04T13:15:16.946Z,26.92
2018-05-04T13:16:16.907Z,26.95
2018-05-04T13:17:16.867Z,27.14
2018-05-04T13:18:16.845Z,27.20
2018-05-04T13:19:16.786Z,27.02
2018-05-04T13:20:16.745Z,27.30
2018-05-04T13:21:16.702Z,27.74
2018-05-04T13:22:16.661Z,27.74
2018-05-04T13:23:16.663Z,27.77
2018-05-04T13:24:16.586Z,27.67
2018-05-04T13:25:16.536Z,27.60
2018-05-04T13:26:17.385Z,27.26
2018-05-04T13:27:16.458Z,27.17
2018-05-04T13:28:16.419Z,27.77
2018-05-04T13:29:16.376Z,27.42
2018-05-04T13:30:16.339Z,27.45
2018-05-04T13:31:16.297Z,27.52
2018-05-04T13:32:16.313Z,27.64
2018-05-04T13:33:16.205Z,27.51
2018-05-04T13:34:16.166Z,27.65
2018-05-04T13:35:16.126Z,27.92
2018-05-04T13:36:16.086Z,28.25
2018-05-04T13:37:16.047Z,28.39
2018-05-04T13:38:16.014Z,28.59
2018-05-04T13:39:15.959Z,28.48